VOI2105 MHLM-MPTO
Flight info
| Callsign | VOI2105 |
|---|---|
| Flight time | 1h 41m |
| Altitude | 39000 |
| Route | TALAG1 TALAG DCT ILLOS UM419 ANSON DCT AROVI VUMAN2C |
| Aircraft | A321/M-SDE3FGHIRWY/LB1 |
Departure
| Time | 2026-04-23 18:17 |
|---|---|
| Airport | Ramón Villeda Morales International Airport (MHLM) |
Arrival
| Time | 2026-04-23 19:58 |
|---|---|
| Airport | Tocumen International Airport (MPTO) |
| Time | Latitude | Longitude | Altitude | Speed | Heading |
|---|---|---|---|---|---|
| 2026-04-23 17:35 | 15.45543 | -87.92659 | 106 ft | 0 kts | 309° |
| 2026-04-23 18:07 | 15.45535 | -87.92649 | 106 ft | 4 kts | 308° |
| 2026-04-23 18:07 | 15.45520 | -87.92628 | 134 ft | 4 kts | 301° |
| 2026-04-23 18:07 | 15.45508 | -87.92604 | 103 ft | 4 kts | 290° |
| 2026-04-23 18:07 | 15.45502 | -87.92580 | 105 ft | 4 kts | 261° |
| 2026-04-23 18:08 | 15.45509 | -87.92564 | 105 ft | 1 kts | 220° |
| 2026-04-23 18:08 | 15.45511 | -87.92561 | 106 ft | 0 kts | 220° |
| 2026-04-23 18:10 | 15.45510 | -87.92563 | 106 ft | 1 kts | 220° |
| 2026-04-23 18:11 | 15.45496 | -87.92575 | 105 ft | 4 kts | 220° |
| 2026-04-23 18:11 | 15.45468 | -87.92598 | 106 ft | 6 kts | 219° |
| 2026-04-23 18:11 | 15.45428 | -87.92632 | 106 ft | 9 kts | 214° |
| 2026-04-23 18:11 | 15.45371 | -87.92623 | 107 ft | 10 kts | 140° |
| 2026-04-23 18:12 | 15.45322 | -87.92564 | 107 ft | 12 kts | 129° |
| 2026-04-23 18:12 | 15.45255 | -87.92532 | 108 ft | 12 kts | 192° |
| 2026-04-23 18:12 | 15.45184 | -87.92583 | 108 ft | 14 kts | 219° |
| 2026-04-23 18:12 | 15.45105 | -87.92652 | 107 ft | 16 kts | 219° |
| 2026-04-23 18:13 | 15.45014 | -87.92731 | 107 ft | 18 kts | 219° |
| 2026-04-23 18:13 | 15.44913 | -87.92819 | 107 ft | 20 kts | 220° |
| 2026-04-23 18:13 | 15.44803 | -87.92915 | 107 ft | 13 kts | 218° |
| 2026-04-23 18:13 | 15.44749 | -87.92960 | 108 ft | 11 kts | 220° |
| 2026-04-23 18:14 | 15.44686 | -87.93015 | 108 ft | 13 kts | 220° |
| 2026-04-23 18:14 | 15.44611 | -87.93080 | 108 ft | 15 kts | 220° |
| 2026-04-23 18:14 | 15.44525 | -87.93156 | 108 ft | 17 kts | 219° |
| 2026-04-23 18:14 | 15.44429 | -87.93239 | 108 ft | 19 kts | 220° |
| 2026-04-23 18:15 | 15.44327 | -87.93324 | 107 ft | 14 kts | 218° |
| 2026-04-23 18:15 | 15.44257 | -87.93299 | 106 ft | 13 kts | 113° |
| 2026-04-23 18:15 | 15.44278 | -87.93211 | 106 ft | 14 kts | 43° |
| 2026-04-23 18:15 | 15.44351 | -87.93148 | 111 ft | 15 kts | 39° |
| 2026-04-23 18:16 | 15.44599 | -87.92937 | 111 ft | 87 kts | 40° |
| 2026-04-23 18:16 | 15.45256 | -87.92363 | 115 ft | 156 kts | 40° |
| 2026-04-23 18:16 | 15.46175 | -87.91593 | 588 ft | 175 kts | 38° |
| 2026-04-23 18:17 | 15.47999 | -87.89993 | 2242 ft | 169 kts | 40° |
| 2026-04-23 18:17 | 15.48882 | -87.89200 | 2863 ft | 167 kts | 40° |
| 2026-04-23 18:17 | 15.49768 | -87.88402 | 3388 ft | 175 kts | 40° |
| 2026-04-23 18:17 | 15.50745 | -87.87525 | 3685 ft | 197 kts | 40° |
| 2026-04-23 18:18 | 15.51837 | -87.86545 | 3951 ft | 219 kts | 40° |
| 2026-04-23 18:18 | 15.53041 | -87.85464 | 4190 ft | 245 kts | 40° |
| 2026-04-23 18:18 | 15.54392 | -87.84253 | 4630 ft | 267 kts | 41° |
| 2026-04-23 18:18 | 15.55824 | -87.82972 | 5339 ft | 275 kts | 41° |
| 2026-04-23 18:19 | 15.57287 | -87.81664 | 6174 ft | 280 kts | 41° |
| 2026-04-23 18:19 | 15.58769 | -87.80337 | 6976 ft | 284 kts | 40° |
| 2026-04-23 18:19 | 15.60274 | -87.78989 | 7762 ft | 288 kts | 40° |
| 2026-04-23 18:19 | 15.61800 | -87.77616 | 8554 ft | 292 kts | 42° |
| 2026-04-23 18:20 | 15.63083 | -87.75965 | 9321 ft | 299 kts | 60° |
| 2026-04-23 18:20 | 15.63805 | -87.73935 | 10077 ft | 305 kts | 78° |
| 2026-04-23 18:20 | 15.63888 | -87.71668 | 10356 ft | 328 kts | 98° |
| 2026-04-23 18:20 | 15.63136 | -87.69360 | 10592 ft | 349 kts | 121° |
| 2026-04-23 18:21 | 15.61552 | -87.67432 | 11154 ft | 355 kts | 142° |
| 2026-04-23 18:21 | 15.59413 | -87.66139 | 11779 ft | 360 kts | 156° |
| 2026-04-23 18:21 | 15.57122 | -87.65056 | 12481 ft | 364 kts | 156° |
| 2026-04-23 18:21 | 15.54800 | -87.63979 | 13166 ft | 368 kts | 157° |
| 2026-04-23 18:22 | 15.52474 | -87.62912 | 13815 ft | 372 kts | 157° |
| 2026-04-23 18:22 | 15.50091 | -87.61822 | 14409 ft | 376 kts | 157° |
| 2026-04-23 18:22 | 15.47685 | -87.60721 | 15018 ft | 379 kts | 157° |
| 2026-04-23 18:22 | 15.45266 | -87.59613 | 15621 ft | 382 kts | 157° |
| 2026-04-23 18:23 | 15.43618 | -87.58857 | 16051 ft | 384 kts | 157° |
| 2026-04-23 18:23 | 15.37895 | -87.56217 | 17482 ft | 391 kts | 157° |
| 2026-04-23 18:24 | 15.32873 | -87.53899 | 18649 ft | 398 kts | 157° |
| 2026-04-23 18:24 | 15.30328 | -87.52721 | 19181 ft | 401 kts | 157° |
| 2026-04-23 18:24 | 15.27767 | -87.51548 | 19721 ft | 404 kts | 158° |
| 2026-04-23 18:25 | 15.22559 | -87.49233 | 20790 ft | 410 kts | 159° |
| 2026-04-23 18:25 | 15.19918 | -87.48075 | 21330 ft | 413 kts | 159° |
| 2026-04-23 18:25 | 15.17259 | -87.46908 | 21861 ft | 416 kts | 159° |
| 2026-04-23 18:25 | 15.14620 | -87.45746 | 22383 ft | 419 kts | 159° |
| 2026-04-23 18:26 | 15.11929 | -87.44557 | 22898 ft | 422 kts | 159° |
| 2026-04-23 18:26 | 15.09217 | -87.43352 | 23406 ft | 425 kts | 159° |
| 2026-04-23 18:26 | 15.06495 | -87.42139 | 23830 ft | 428 kts | 159° |
| 2026-04-23 18:26 | 15.03752 | -87.40917 | 24244 ft | 431 kts | 159° |
| 2026-04-23 18:27 | 15.00989 | -87.39686 | 24670 ft | 433 kts | 159° |
| 2026-04-23 18:27 | 14.98211 | -87.38452 | 25076 ft | 436 kts | 160° |
| 2026-04-23 18:27 | 14.95416 | -87.37212 | 25478 ft | 438 kts | 160° |
| 2026-04-23 18:27 | 14.92599 | -87.35964 | 25878 ft | 441 kts | 160° |
| 2026-04-23 18:28 | 14.89772 | -87.34713 | 26284 ft | 443 kts | 160° |
| 2026-04-23 18:28 | 14.86927 | -87.33454 | 26677 ft | 446 kts | 160° |
| 2026-04-23 18:28 | 14.84065 | -87.32188 | 27065 ft | 448 kts | 160° |
| 2026-04-23 18:28 | 14.81188 | -87.30916 | 27448 ft | 451 kts | 160° |
| 2026-04-23 18:29 | 14.78293 | -87.29636 | 27826 ft | 453 kts | 160° |
| 2026-04-23 18:29 | 14.75385 | -87.28350 | 28207 ft | 456 kts | 160° |
| 2026-04-23 18:29 | 14.72459 | -87.27053 | 28580 ft | 459 kts | 160° |
| 2026-04-23 18:29 | 14.69560 | -87.25768 | 28936 ft | 461 kts | 160° |
| 2026-04-23 18:30 | 14.66603 | -87.24459 | 29311 ft | 464 kts | 160° |
| 2026-04-23 18:30 | 14.63623 | -87.23143 | 29655 ft | 466 kts | 160° |
| 2026-04-23 18:30 | 14.60632 | -87.21825 | 30022 ft | 469 kts | 160° |
| 2026-04-23 18:30 | 14.57621 | -87.20498 | 30317 ft | 472 kts | 161° |
| 2026-04-23 18:31 | 14.54596 | -87.19164 | 30625 ft | 474 kts | 161° |
| 2026-04-23 18:31 | 14.51560 | -87.17823 | 30924 ft | 476 kts | 161° |
| 2026-04-23 18:31 | 14.48508 | -87.16474 | 31244 ft | 478 kts | 161° |
| 2026-04-23 18:31 | 14.45526 | -87.14927 | 31643 ft | 482 kts | 152° |
| 2026-04-23 18:32 | 14.42790 | -87.12911 | 32071 ft | 486 kts | 143° |
| 2026-04-23 18:32 | 14.40367 | -87.10461 | 32496 ft | 489 kts | 135° |
| 2026-04-23 18:32 | 14.38132 | -87.07817 | 32917 ft | 489 kts | 135° |
| 2026-04-23 18:32 | 14.35904 | -87.05175 | 33340 ft | 488 kts | 135° |
| 2026-04-23 18:33 | 14.33674 | -87.02530 | 33771 ft | 488 kts | 135° |
| 2026-04-23 18:33 | 14.31446 | -86.99891 | 34184 ft | 487 kts | 135° |
| 2026-04-23 18:33 | 14.29224 | -86.97263 | 34545 ft | 486 kts | 135° |
| 2026-04-23 18:33 | 14.26998 | -86.94634 | 34903 ft | 486 kts | 135° |
| 2026-04-23 18:34 | 14.24782 | -86.92020 | 35296 ft | 484 kts | 135° |
| 2026-04-23 18:34 | 14.22569 | -86.89411 | 35684 ft | 483 kts | 135° |
| 2026-04-23 18:34 | 14.20362 | -86.86806 | 36053 ft | 482 kts | 135° |
| 2026-04-23 18:34 | 14.18189 | -86.84241 | 36428 ft | 480 kts | 135° |
| 2026-04-23 18:35 | 14.16002 | -86.81663 | 36883 ft | 477 kts | 135° |
| 2026-04-23 18:35 | 14.13820 | -86.79091 | 37256 ft | 475 kts | 135° |
| 2026-04-23 18:35 | 14.11647 | -86.76529 | 37609 ft | 474 kts | 135° |
| 2026-04-23 18:35 | 14.09479 | -86.73979 | 37943 ft | 473 kts | 135° |
| 2026-04-23 18:36 | 14.07313 | -86.71430 | 38279 ft | 472 kts | 135° |
| 2026-04-23 18:36 | 14.05152 | -86.68887 | 38586 ft | 471 kts | 135° |
| 2026-04-23 18:36 | 14.02995 | -86.66347 | 38844 ft | 470 kts | 135° |
| 2026-04-23 18:36 | 14.00839 | -86.63812 | 38970 ft | 471 kts | 135° |
| 2026-04-23 18:37 | 13.98676 | -86.61267 | 39006 ft | 470 kts | 135° |
| 2026-04-23 18:37 | 13.94368 | -86.56201 | 39010 ft | 470 kts | 135° |
| 2026-04-23 18:38 | 13.90047 | -86.51139 | 39005 ft | 471 kts | 135° |
| 2026-04-23 18:38 | 13.85727 | -86.46065 | 39011 ft | 471 kts | 135° |
| 2026-04-23 18:39 | 13.81413 | -86.40986 | 39005 ft | 470 kts | 134° |
| 2026-04-23 18:39 | 13.77111 | -86.35941 | 39020 ft | 469 kts | 134° |
| 2026-04-23 18:40 | 13.72830 | -86.30939 | 39016 ft | 468 kts | 134° |
| 2026-04-23 18:40 | 13.68530 | -86.25897 | 39015 ft | 468 kts | 134° |
| 2026-04-23 18:41 | 13.64228 | -86.20857 | 39020 ft | 468 kts | 134° |
| 2026-04-23 18:41 | 13.59922 | -86.15822 | 39016 ft | 469 kts | 134° |
| 2026-04-23 18:42 | 13.55635 | -86.10814 | 39011 ft | 469 kts | 134° |
| 2026-04-23 18:42 | 13.51328 | -86.05776 | 39010 ft | 470 kts | 134° |
| 2026-04-23 18:43 | 13.47001 | -86.00732 | 39009 ft | 470 kts | 134° |
| 2026-04-23 18:43 | 13.42684 | -85.95700 | 39012 ft | 469 kts | 134° |
| 2026-04-23 18:44 | 13.38365 | -85.90669 | 39015 ft | 469 kts | 134° |
| 2026-04-23 18:44 | 13.34062 | -85.85640 | 39016 ft | 468 kts | 134° |
| 2026-04-23 18:45 | 13.29753 | -85.80611 | 39015 ft | 468 kts | 134° |
| 2026-04-23 18:45 | 13.26178 | -85.76444 | 39015 ft | 468 kts | 134° |
| 2026-04-23 18:46 | 13.21170 | -85.70622 | 39009 ft | 468 kts | 134° |
| 2026-04-23 18:46 | 13.16857 | -85.65617 | 39008 ft | 468 kts | 134° |
| 2026-04-23 18:47 | 13.12547 | -85.60619 | 39003 ft | 468 kts | 134° |
| 2026-04-23 18:47 | 13.08940 | -85.56427 | 38982 ft | 468 kts | 134° |
| 2026-04-23 18:48 | 13.04657 | -85.51444 | 38960 ft | 470 kts | 134° |
| 2026-04-23 18:48 | 13.00321 | -85.46412 | 38955 ft | 471 kts | 134° |
| 2026-04-23 18:49 | 12.95972 | -85.41375 | 38954 ft | 472 kts | 134° |
| 2026-04-23 18:49 | 12.91616 | -85.36323 | 38961 ft | 473 kts | 134° |
| 2026-04-23 18:50 | 12.87990 | -85.32128 | 38963 ft | 473 kts | 134° |
| 2026-04-23 18:50 | 12.82885 | -85.26224 | 38953 ft | 473 kts | 134° |
| 2026-04-23 18:51 | 12.78522 | -85.21172 | 38951 ft | 473 kts | 134° |
| 2026-04-23 18:51 | 12.74158 | -85.16124 | 38951 ft | 473 kts | 134° |
| 2026-04-23 18:52 | 12.69797 | -85.11076 | 38948 ft | 473 kts | 134° |
| 2026-04-23 18:52 | 12.65434 | -85.06039 | 38951 ft | 473 kts | 134° |
| 2026-04-23 18:53 | 12.61093 | -85.01029 | 38954 ft | 473 kts | 134° |
| 2026-04-23 18:53 | 12.56731 | -84.95999 | 38960 ft | 472 kts | 134° |
| 2026-04-23 18:54 | 12.52365 | -84.90978 | 38960 ft | 472 kts | 134° |
| 2026-04-23 18:54 | 12.48010 | -84.85955 | 38959 ft | 471 kts | 134° |
| 2026-04-23 18:55 | 12.43653 | -84.80933 | 38953 ft | 471 kts | 134° |
| 2026-04-23 18:55 | 12.39307 | -84.75922 | 38951 ft | 471 kts | 134° |
| 2026-04-23 18:56 | 12.35688 | -84.71753 | 38953 ft | 471 kts | 134° |
| 2026-04-23 18:56 | 12.30598 | -84.65907 | 38947 ft | 471 kts | 134° |
| 2026-04-23 18:57 | 12.26251 | -84.60907 | 38949 ft | 470 kts | 134° |
| 2026-04-23 18:57 | 12.21937 | -84.55947 | 38952 ft | 469 kts | 134° |
| 2026-04-23 18:58 | 12.17595 | -84.50968 | 38959 ft | 469 kts | 134° |
| 2026-04-23 18:58 | 12.13253 | -84.45990 | 38955 ft | 468 kts | 134° |
| 2026-04-23 18:59 | 12.08920 | -84.41020 | 38953 ft | 468 kts | 134° |
| 2026-04-23 18:59 | 12.04584 | -84.36051 | 38953 ft | 468 kts | 134° |
| 2026-04-23 19:00 | 12.00249 | -84.31084 | 38953 ft | 468 kts | 134° |
| 2026-04-23 19:00 | 11.95919 | -84.26124 | 38963 ft | 467 kts | 135° |
| 2026-04-23 19:01 | 11.91633 | -84.21220 | 38971 ft | 464 kts | 135° |
| 2026-04-23 19:01 | 11.87330 | -84.16300 | 38968 ft | 463 kts | 135° |
| 2026-04-23 19:02 | 11.83039 | -84.11398 | 38969 ft | 462 kts | 135° |
| 2026-04-23 19:02 | 11.78757 | -84.06505 | 38967 ft | 462 kts | 135° |
| 2026-04-23 19:03 | 11.74478 | -84.01614 | 38968 ft | 462 kts | 135° |
| 2026-04-23 19:03 | 11.70200 | -83.96722 | 38966 ft | 461 kts | 135° |
| 2026-04-23 19:04 | 11.65922 | -83.91844 | 38972 ft | 461 kts | 135° |
| 2026-04-23 19:04 | 11.61669 | -83.87002 | 38976 ft | 461 kts | 135° |
| 2026-04-23 19:05 | 11.57401 | -83.82133 | 38979 ft | 459 kts | 135° |
| 2026-04-23 19:05 | 11.53152 | -83.77290 | 38979 ft | 457 kts | 135° |
| 2026-04-23 19:06 | 11.48913 | -83.72458 | 38980 ft | 456 kts | 135° |
| 2026-04-23 19:06 | 11.44675 | -83.67636 | 38979 ft | 456 kts | 135° |
| 2026-04-23 19:07 | 11.40465 | -83.62855 | 38980 ft | 455 kts | 135° |
| 2026-04-23 19:07 | 11.36238 | -83.58052 | 38975 ft | 455 kts | 135° |
| 2026-04-23 19:08 | 11.32017 | -83.53248 | 38971 ft | 455 kts | 135° |
| 2026-04-23 19:08 | 11.27799 | -83.48447 | 38970 ft | 454 kts | 135° |
| 2026-04-23 19:09 | 11.23582 | -83.43656 | 38967 ft | 454 kts | 135° |
| 2026-04-23 19:09 | 11.19355 | -83.38872 | 38967 ft | 453 kts | 135° |
| 2026-04-23 19:10 | 11.15239 | -83.34001 | 38967 ft | 455 kts | 127° |
| 2026-04-23 19:10 | 11.11810 | -83.28567 | 38969 ft | 456 kts | 125° |
| 2026-04-23 19:11 | 11.08383 | -83.23129 | 38969 ft | 456 kts | 126° |
| 2026-04-23 19:11 | 11.04971 | -83.17733 | 38969 ft | 456 kts | 126° |
| 2026-04-23 19:12 | 11.02098 | -83.13183 | 38966 ft | 456 kts | 126° |
| 2026-04-23 19:12 | 10.98106 | -83.06864 | 38964 ft | 457 kts | 126° |
| 2026-04-23 19:13 | 10.94665 | -83.01422 | 38962 ft | 457 kts | 126° |
| 2026-04-23 19:13 | 10.91222 | -82.95976 | 38961 ft | 458 kts | 126° |
| 2026-04-23 19:14 | 10.87776 | -82.90522 | 38963 ft | 458 kts | 126° |
| 2026-04-23 19:14 | 10.84334 | -82.85073 | 38964 ft | 458 kts | 126° |
| 2026-04-23 19:15 | 10.80886 | -82.79618 | 38968 ft | 458 kts | 126° |
| 2026-04-23 19:15 | 10.77466 | -82.74214 | 38971 ft | 457 kts | 126° |
| 2026-04-23 19:16 | 10.74020 | -82.68779 | 38969 ft | 457 kts | 126° |
| 2026-04-23 19:16 | 10.70580 | -82.63352 | 38968 ft | 456 kts | 126° |
| 2026-04-23 19:17 | 10.65495 | -82.55176 | 38968 ft | 456 kts | 125° |
| 2026-04-23 19:17 | 10.62139 | -82.49705 | 38960 ft | 455 kts | 125° |
| 2026-04-23 19:18 | 10.58782 | -82.44252 | 38963 ft | 455 kts | 126° |
| 2026-04-23 19:18 | 10.55402 | -82.38803 | 38962 ft | 455 kts | 126° |
| 2026-04-23 19:19 | 10.50336 | -82.30636 | 38964 ft | 455 kts | 125° |
| 2026-04-23 19:20 | 10.45280 | -82.22477 | 38962 ft | 454 kts | 125° |
| 2026-04-23 19:20 | 10.41943 | -82.17090 | 38964 ft | 453 kts | 125° |
| 2026-04-23 19:21 | 10.36902 | -82.08968 | 38967 ft | 452 kts | 125° |
| 2026-04-23 19:22 | 10.33539 | -82.03564 | 38958 ft | 452 kts | 125° |
| 2026-04-23 19:22 | 10.28505 | -81.95452 | 38961 ft | 453 kts | 125° |
| 2026-04-23 19:23 | 10.25143 | -81.90037 | 38963 ft | 453 kts | 125° |
| 2026-04-23 19:24 | 10.20099 | -81.81930 | 38963 ft | 453 kts | 125° |
| 2026-04-23 19:24 | 10.15072 | -81.73869 | 38960 ft | 452 kts | 125° |
| 2026-04-23 19:25 | 10.08345 | -81.63075 | 38947 ft | 452 kts | 125° |
| 2026-04-23 19:26 | 10.03281 | -81.54961 | 38937 ft | 454 kts | 125° |
| 2026-04-23 19:27 | 9.94843 | -81.41416 | 38945 ft | 456 kts | 125° |
| 2026-04-23 19:28 | 9.88043 | -81.30539 | 38953 ft | 456 kts | 125° |
| 2026-04-23 19:29 | 9.82942 | -81.22403 | 38954 ft | 455 kts | 125° |
| 2026-04-23 19:30 | 9.77860 | -81.14275 | 38952 ft | 454 kts | 125° |
| 2026-04-23 19:31 | 9.72797 | -81.06189 | 38954 ft | 454 kts | 125° |
| 2026-04-23 19:31 | 9.69410 | -81.00789 | 38947 ft | 453 kts | 124° |
| 2026-04-23 19:32 | 9.66033 | -80.95400 | 38951 ft | 453 kts | 124° |
| 2026-04-23 19:32 | 9.62665 | -80.90020 | 38953 ft | 452 kts | 124° |
| 2026-04-23 19:33 | 9.59143 | -80.84765 | 38949 ft | 448 kts | 133° |
| 2026-04-23 19:33 | 9.52206 | -80.78498 | 38947 ft | 445 kts | 142° |
| 2026-04-23 19:34 | 9.47465 | -80.74469 | 38943 ft | 445 kts | 142° |
| 2026-04-23 19:34 | 9.43522 | -80.71118 | 38754 ft | 445 kts | 142° |
| 2026-04-23 19:35 | 9.41150 | -80.69100 | 38505 ft | 444 kts | 142° |
| 2026-04-23 19:35 | 9.38786 | -80.67088 | 38230 ft | 444 kts | 142° |
| 2026-04-23 19:35 | 9.36420 | -80.65073 | 37968 ft | 444 kts | 142° |
| 2026-04-23 19:35 | 9.34053 | -80.63058 | 37669 ft | 443 kts | 142° |
| 2026-04-23 19:36 | 9.31695 | -80.61050 | 37119 ft | 443 kts | 141° |
| 2026-04-23 19:36 | 9.29333 | -80.59042 | 36467 ft | 445 kts | 141° |
| 2026-04-23 19:36 | 9.26956 | -80.57023 | 35792 ft | 447 kts | 141° |
| 2026-04-23 19:36 | 9.24594 | -80.55015 | 35075 ft | 450 kts | 141° |
| 2026-04-23 19:37 | 9.22190 | -80.52966 | 34287 ft | 454 kts | 141° |
| 2026-04-23 19:37 | 9.19763 | -80.50895 | 33350 ft | 459 kts | 141° |
| 2026-04-23 19:37 | 9.17315 | -80.48812 | 32746 ft | 457 kts | 141° |
| 2026-04-23 19:37 | 9.14894 | -80.46756 | 32230 ft | 453 kts | 141° |
| 2026-04-23 19:38 | 9.12486 | -80.44713 | 31672 ft | 450 kts | 141° |
| 2026-04-23 19:38 | 9.10097 | -80.42678 | 31153 ft | 447 kts | 140° |
| 2026-04-23 19:38 | 9.08008 | -80.40445 | 30985 ft | 429 kts | 129° |
| 2026-04-23 19:38 | 9.06449 | -80.37929 | 30577 ft | 419 kts | 117° |
| 2026-04-23 19:39 | 9.05446 | -80.35186 | 30119 ft | 415 kts | 105° |
| 2026-04-23 19:39 | 9.04883 | -80.32328 | 29471 ft | 413 kts | 102° |
| 2026-04-23 19:39 | 9.04361 | -80.29487 | 28886 ft | 410 kts | 102° |
| 2026-04-23 19:39 | 9.03835 | -80.26658 | 28311 ft | 410 kts | 102° |
| 2026-04-23 19:40 | 9.03302 | -80.23820 | 27831 ft | 409 kts | 102° |
| 2026-04-23 19:40 | 9.02772 | -80.21009 | 27472 ft | 405 kts | 102° |
| 2026-04-23 19:40 | 9.02242 | -80.18214 | 27023 ft | 404 kts | 102° |
| 2026-04-23 19:40 | 9.01712 | -80.15426 | 26597 ft | 402 kts | 101° |
| 2026-04-23 19:41 | 9.01190 | -80.12658 | 26220 ft | 399 kts | 101° |
| 2026-04-23 19:41 | 9.00681 | -80.09946 | 25809 ft | 397 kts | 101° |
| 2026-04-23 19:41 | 9.00167 | -80.07205 | 25383 ft | 395 kts | 101° |
| 2026-04-23 19:41 | 8.99653 | -80.04487 | 24992 ft | 392 kts | 101° |
| 2026-04-23 19:42 | 8.99142 | -80.01787 | 24591 ft | 390 kts | 101° |
| 2026-04-23 19:42 | 8.98633 | -79.99106 | 24171 ft | 388 kts | 101° |
| 2026-04-23 19:42 | 8.98127 | -79.96434 | 23781 ft | 386 kts | 101° |
| 2026-04-23 19:42 | 8.97625 | -79.93776 | 23400 ft | 383 kts | 100° |
| 2026-04-23 19:43 | 8.97176 | -79.91135 | 22922 ft | 380 kts | 94° |
| 2026-04-23 19:43 | 8.97255 | -79.88482 | 22403 ft | 373 kts | 79° |
| 2026-04-23 19:43 | 8.97961 | -79.85998 | 21511 ft | 365 kts | 65° |
| 2026-04-23 19:43 | 8.99235 | -79.83815 | 20586 ft | 358 kts | 53° |
| 2026-04-23 19:44 | 9.00701 | -79.81793 | 19691 ft | 354 kts | 53° |
| 2026-04-23 19:44 | 9.02141 | -79.79787 | 18826 ft | 350 kts | 54° |
| 2026-04-23 19:44 | 9.03555 | -79.77805 | 18023 ft | 346 kts | 54° |
| 2026-04-23 19:44 | 9.04946 | -79.75846 | 17400 ft | 340 kts | 55° |
| 2026-04-23 19:45 | 9.06312 | -79.73917 | 16913 ft | 335 kts | 55° |
| 2026-04-23 19:45 | 9.07649 | -79.72027 | 16437 ft | 332 kts | 55° |
| 2026-04-23 19:45 | 9.08992 | -79.70128 | 15967 ft | 331 kts | 55° |
| 2026-04-23 19:45 | 9.10333 | -79.68233 | 15486 ft | 332 kts | 54° |
| 2026-04-23 19:46 | 9.11685 | -79.66328 | 15041 ft | 331 kts | 55° |
| 2026-04-23 19:46 | 9.13028 | -79.64442 | 14683 ft | 328 kts | 55° |
| 2026-04-23 19:46 | 9.14368 | -79.62561 | 14264 ft | 329 kts | 55° |
| 2026-04-23 19:46 | 9.15697 | -79.60694 | 13944 ft | 325 kts | 54° |
| 2026-04-23 19:47 | 9.17013 | -79.58841 | 13561 ft | 323 kts | 54° |
| 2026-04-23 19:47 | 9.18306 | -79.57021 | 13157 ft | 321 kts | 55° |
| 2026-04-23 19:47 | 9.19598 | -79.55197 | 12844 ft | 308 kts | 55° |
| 2026-04-23 19:47 | 9.20829 | -79.53457 | 12444 ft | 300 kts | 55° |
| 2026-04-23 19:48 | 9.22020 | -79.51778 | 11969 ft | 296 kts | 54° |
| 2026-04-23 19:48 | 9.23143 | -79.50051 | 11462 ft | 293 kts | 63° |
| 2026-04-23 19:48 | 9.23988 | -79.48184 | 10973 ft | 290 kts | 66° |
| 2026-04-23 19:48 | 9.24809 | -79.46330 | 10492 ft | 288 kts | 66° |
| 2026-04-23 19:49 | 9.25625 | -79.44491 | 10011 ft | 286 kts | 66° |
| 2026-04-23 19:49 | 9.26437 | -79.42669 | 9524 ft | 283 kts | 66° |
| 2026-04-23 19:49 | 9.27243 | -79.40859 | 9006 ft | 281 kts | 66° |
| 2026-04-23 19:49 | 9.28040 | -79.39062 | 8500 ft | 279 kts | 66° |
| 2026-04-23 19:50 | 9.28833 | -79.37269 | 7971 ft | 278 kts | 66° |
| 2026-04-23 19:50 | 9.29614 | -79.35497 | 7527 ft | 274 kts | 66° |
| 2026-04-23 19:50 | 9.30387 | -79.33746 | 7217 ft | 269 kts | 66° |
| 2026-04-23 19:50 | 9.31153 | -79.32009 | 7137 ft | 271 kts | 66° |
| 2026-04-23 19:51 | 9.31846 | -79.30233 | 7011 ft | 269 kts | 79° |
| 2026-04-23 19:51 | 9.31763 | -79.28419 | 6884 ft | 250 kts | 110° |
| 2026-04-23 19:51 | 9.30909 | -79.27003 | 6677 ft | 231 kts | 137° |
| 2026-04-23 19:51 | 9.29578 | -79.26191 | 6317 ft | 219 kts | 164° |
| 2026-04-23 19:52 | 9.28126 | -79.25991 | 6008 ft | 205 kts | 176° |
| 2026-04-23 19:52 | 9.26713 | -79.25882 | 5669 ft | 202 kts | 175° |
| 2026-04-23 19:52 | 9.25319 | -79.25769 | 5348 ft | 201 kts | 175° |
| 2026-04-23 19:52 | 9.23926 | -79.25655 | 5037 ft | 200 kts | 175° |
| 2026-04-23 19:53 | 9.22540 | -79.25540 | 4728 ft | 199 kts | 175° |
| 2026-04-23 19:53 | 9.21162 | -79.25423 | 4412 ft | 199 kts | 175° |
| 2026-04-23 19:53 | 9.19785 | -79.25307 | 4105 ft | 199 kts | 175° |
| 2026-04-23 19:53 | 9.18409 | -79.25190 | 3798 ft | 198 kts | 175° |
| 2026-04-23 19:54 | 9.17036 | -79.25186 | 3481 ft | 198 kts | 194° |
| 2026-04-23 19:54 | 9.15902 | -79.25921 | 3190 ft | 197 kts | 233° |
| 2026-04-23 19:54 | 9.15450 | -79.27186 | 2863 ft | 193 kts | 270° |
| 2026-04-23 19:54 | 9.15530 | -79.28537 | 2560 ft | 192 kts | 275° |
| 2026-04-23 19:55 | 9.15587 | -79.29882 | 2289 ft | 188 kts | 274° |
| 2026-04-23 19:55 | 9.15627 | -79.31172 | 2029 ft | 179 kts | 274° |
| 2026-04-23 19:55 | 9.15557 | -79.32392 | 1803 ft | 172 kts | 261° |
| 2026-04-23 19:55 | 9.15139 | -79.33464 | 1597 ft | 157 kts | 242° |
| 2026-04-23 19:56 | 9.14482 | -79.34302 | 1371 ft | 148 kts | 225° |
| 2026-04-23 19:56 | 9.13658 | -79.34904 | 1157 ft | 147 kts | 211° |
| 2026-04-23 19:56 | 9.12794 | -79.35419 | 965 ft | 142 kts | 211° |
| 2026-04-23 19:56 | 9.11962 | -79.35917 | 783 ft | 136 kts | 209° |
| 2026-04-23 19:57 | 9.11158 | -79.36398 | 614 ft | 135 kts | 207° |
| 2026-04-23 19:57 | 9.10367 | -79.36873 | 403 ft | 132 kts | 208° |
| 2026-04-23 19:57 | 9.09584 | -79.37346 | 225 ft | 130 kts | 209° |
| 2026-04-23 19:57 | 9.08809 | -79.37809 | 107 ft | 129 kts | 206° |
| 2026-04-23 19:58 | 9.08080 | -79.38229 | 48 ft | 106 kts | 208° |
| 2026-04-23 19:58 | 9.07587 | -79.38533 | 49 ft | 58 kts | 211° |
| 2026-04-23 19:58 | 9.07380 | -79.38662 | 48 ft | 20 kts | 212° |
| 2026-04-23 19:58 | 9.07307 | -79.38695 | 47 ft | 8 kts | 177° |
| 2026-04-23 19:59 | 9.07265 | -79.38649 | 41 ft | 8 kts | 123° |
| 2026-04-23 19:59 | 9.07239 | -79.38610 | 35 ft | 7 kts | 131° |
| 2026-04-23 19:59 | 9.07173 | -79.38610 | 34 ft | 12 kts | 204° |
| 2026-04-23 19:59 | 9.07156 | -79.38619 | 33 ft | 3 kts | 206° |
| 2026-04-23 20:00 | 9.07132 | -79.38622 | 33 ft | 1 kts | 170° |
| 2026-04-23 20:00 | 9.07115 | -79.38609 | 31 ft | 5 kts | 134° |
| 2026-04-23 20:00 | 9.07109 | -79.38600 | 31 ft | 0 kts | 122° |